createdAt,value
2019-01-06T00:03:33.046Z,93.00
2019-01-06T00:08:44.157Z,92.90
2019-01-06T00:12:57.521Z,93.00
2019-01-06T00:17:11.170Z,93.10
2019-01-06T00:21:57.044Z,93.00
2019-01-06T00:26:11.325Z,93.00
2019-01-06T00:30:27.464Z,93.10
2019-01-06T00:34:41.817Z,93.10
2019-01-06T00:38:57.278Z,93.00
2019-01-06T00:43:10.601Z,92.90
2019-01-06T00:47:24.178Z,93.00
2019-01-06T00:51:43.515Z,92.90
2019-01-06T00:55:57.770Z,92.80
2019-01-06T01:01:10.940Z,93.00
2019-01-06T01:05:24.598Z,93.00
2019-01-06T01:09:38.789Z,93.20
2019-01-06T01:14:51.921Z,93.10
2019-01-06T01:19:05.269Z,93.20
2019-01-06T01:23:18.897Z,93.40
2019-01-06T01:27:36.210Z,93.30
2019-01-06T01:31:53.561Z,93.20
2019-01-06T01:36:09.703Z,93.10
2019-01-06T01:40:26.898Z,93.60
2019-01-06T01:44:44.311Z,93.10
2019-01-06T01:49:56.423Z,93.20
2019-01-06T01:56:14.353Z,93.20
2019-01-06T02:00:27.729Z,93.50
2019-01-06T02:04:42.970Z,93.90
2019-01-06T02:08:55.330Z,93.70
2019-01-06T02:13:09.708Z,93.60
2019-01-06T02:17:24.010Z,93.60
2019-01-06T02:21:42.351Z,93.50
2019-01-06T02:25:55.846Z,93.60
2019-01-06T02:30:08.951Z,93.50
2019-01-06T02:34:22.519Z,93.50
2019-01-06T02:39:36.925Z,93.50
2019-01-06T02:43:51.115Z,93.60
2019-01-06T02:48:10.554Z,93.80
2019-01-06T02:52:26.942Z,93.80
2019-01-06T02:56:41.246Z,93.70
2019-01-06T03:00:55.642Z,93.60
2019-01-06T03:05:23.235Z,93.70
2019-01-06T03:09:36.871Z,93.60
2019-01-06T03:13:49.282Z,93.60
2019-01-06T03:18:01.670Z,93.60
2019-01-06T03:22:19.130Z,93.60
2019-01-06T03:26:32.366Z,93.60
2019-01-06T03:32:48.464Z,93.60
2019-01-06T03:37:07.970Z,93.50
2019-01-06T03:41:22.254Z,93.90
2019-01-06T03:45:35.625Z,93.70
2019-01-06T03:49:49.310Z,93.70
2019-01-06T03:54:02.922Z,93.50
2019-01-06T03:58:30.482Z,93.40
2019-01-06T04:02:48.791Z,93.40
2019-01-06T04:08:01.967Z,93.40
2019-01-06T04:12:27.461Z,93.40
2019-01-06T04:16:39.846Z,93.40
2019-01-06T04:21:55.042Z,93.40
2019-01-06T04:26:08.590Z,93.30
2019-01-06T04:30:26.966Z,93.30
2019-01-06T04:34:51.417Z,93.30
2019-01-06T04:39:12.857Z,93.30
2019-01-06T04:43:26.071Z,93.10
2019-01-06T04:49:42.838Z,93.00
2019-01-06T04:53:56.217Z,92.90
2019-01-06T04:58:09.565Z,93.00
2019-01-06T05:02:22.942Z,93.10
2019-01-06T05:06:36.179Z,93.00
2019-01-06T05:12:52.209Z,93.10
2019-01-06T05:17:09.577Z,93.10
2019-01-06T05:21:23.069Z,93.20
2019-01-06T05:25:36.679Z,93.30
2019-01-06T05:29:49.961Z,93.20
2019-01-06T05:34:06.828Z,93.30
2019-01-06T05:38:24.711Z,93.30
2019-01-06T05:42:37.851Z,93.30
2019-01-06T05:47:00.222Z,93.30
2019-01-06T05:52:11.154Z,93.30
2019-01-06T05:56:26.561Z,93.10
2019-01-06T06:00:45.736Z,93.20
2019-01-06T06:04:59.194Z,93.10
2019-01-06T06:09:16.345Z,92.80
2019-01-06T06:14:00.757Z,92.90
2019-01-06T06:18:14.346Z,92.70
2019-01-06T06:23:00.961Z,92.60
2019-01-06T06:27:20.222Z,92.60
2019-01-06T06:31:40.545Z,92.60
2019-01-06T06:35:54.233Z,93.00
2019-01-06T06:40:10.622Z,92.60
2019-01-06T06:44:25.755Z,92.70
2019-01-06T06:48:40.153Z,92.60
2019-01-06T06:52:53.802Z,92.60
2019-01-06T06:57:19.698Z,92.60
2019-01-06T07:01:38.753Z,92.70
2019-01-06T07:05:54.433Z,92.60
2019-01-06T07:10:08.088Z,92.60
2019-01-06T07:14:21.493Z,92.50
2019-01-06T07:18:38.749Z,92.50
2019-01-06T07:22:53.016Z,92.50
2019-01-06T07:28:05.106Z,92.40
2019-01-06T07:32:19.561Z,92.40
2019-01-06T07:37:30.878Z,92.50
2019-01-06T07:41:43.274Z,92.40
2019-01-06T07:46:06.901Z,92.40
2019-01-06T07:50:23.345Z,92.40
2019-01-06T07:54:38.670Z,92.20
2019-01-06T07:59:26.296Z,92.20
2019-01-06T08:03:39.976Z,91.90
2019-01-06T08:07:55.744Z,92.00
2019-01-06T08:12:09.131Z,92.00
2019-01-06T08:16:22.609Z,91.90
2019-01-06T08:21:38.026Z,91.90
2019-01-06T08:25:51.519Z,91.90
2019-01-06T08:30:05.184Z,91.80
2019-01-06T08:34:22.609Z,91.70
2019-01-06T08:38:50.169Z,91.60
2019-01-06T08:43:03.609Z,91.40
2019-01-06T08:48:18.002Z,91.40
2019-01-06T08:52:32.342Z,91.30
2019-01-06T08:57:45.523Z,91.40
2019-01-06T09:01:59.102Z,91.20
2019-01-06T09:08:15.239Z,91.20
2019-01-06T09:12:28.969Z,91.10
2019-01-06T09:17:45.462Z,91.00
2019-01-06T09:21:59.216Z,90.70
2019-01-06T09:26:13.590Z,90.60
2019-01-06T09:30:32.974Z,90.70
2019-01-06T09:34:48.414Z,90.50
2019-01-06T09:40:04.675Z,90.20
2019-01-06T09:44:18.430Z,90.00
2019-01-06T09:48:32.762Z,90.00
2019-01-06T09:52:47.130Z,89.80
2019-01-06T09:57:00.626Z,89.20
2019-01-06T10:01:14.037Z,88.90
2019-01-06T10:05:27.705Z,88.40
2019-01-06T10:09:41.309Z,87.90
2019-01-06T10:13:54.837Z,87.70
2019-01-06T10:18:08.491Z,87.20
2019-01-06T10:22:22.927Z,86.60
2019-01-06T10:27:36.650Z,86.10
2019-01-06T10:31:51.029Z,85.60
2019-01-06T10:36:34.632Z,85.00
2019-01-06T10:40:53.389Z,84.50
2019-01-06T10:45:05.825Z,84.20
2019-01-06T10:49:24.216Z,84.00
2019-01-06T10:53:37.969Z,83.10
2019-01-06T10:57:51.583Z,82.70
2019-01-06T11:02:05.265Z,83.00
2019-01-06T11:06:20.644Z,81.20
2019-01-06T11:10:33.084Z,80.30
2019-01-06T11:14:48.412Z,79.00
2019-01-06T11:19:59.616Z,78.90
2019-01-06T11:26:17.735Z,77.90
2019-01-06T11:30:31.419Z,77.80
2019-01-06T11:34:44.893Z,78.70
2019-01-06T11:38:58.502Z,78.20
2019-01-06T11:43:12.906Z,78.70
2019-01-06T11:47:25.335Z,78.80
2019-01-06T11:51:44.883Z,78.60
2019-01-06T11:58:06.915Z,78.10
2019-01-06T12:02:20.615Z,78.10
2019-01-06T12:06:34.339Z,79.00
2019-01-06T12:10:48.056Z,79.60
2019-01-06T12:16:05.259Z,79.70
2019-01-06T12:20:17.688Z,79.60
2019-01-06T12:25:05.523Z,79.90
2019-01-06T12:29:19.132Z,79.30
2019-01-06T12:35:35.140Z,79.10
2019-01-06T12:39:48.832Z,78.50
2019-01-06T12:46:06.887Z,78.80
2019-01-06T12:50:36.444Z,78.60
2019-01-06T12:56:55.627Z,78.30
2019-01-06T13:02:10.920Z,77.80
2019-01-06T13:07:25.955Z,77.50
2019-01-06T13:11:38.399Z,78.60
2019-01-06T13:15:59.860Z,79.20
2019-01-06T13:20:13.359Z,79.10
2019-01-06T13:24:30.676Z,79.00
2019-01-06T13:28:44.339Z,79.30
2019-01-06T13:33:14.000Z,79.20
2019-01-06T13:39:30.355Z,79.40
2019-01-06T13:43:44.084Z,79.90
2019-01-06T13:50:03.961Z,81.10
2019-01-06T13:54:30.257Z,81.10
2019-01-06T13:58:40.030Z,81.10
2019-01-06T14:02:59.425Z,81.20
2019-01-06T14:07:18.788Z,80.40
2019-01-06T14:11:32.272Z,78.70
2019-01-06T14:17:53.463Z,78.80
2019-01-06T14:22:05.904Z,78.70
2019-01-06T14:26:23.396Z,78.70
2019-01-06T14:30:37.639Z,78.50
2019-01-06T14:34:51.077Z,78.30
2019-01-06T14:39:34.651Z,78.60
2019-01-06T14:43:48.320Z,78.60
2019-01-06T14:49:07.424Z,78.80
2019-01-06T14:54:18.855Z,79.00
2019-01-06T14:58:33.276Z,79.30
2019-01-06T15:04:51.405Z,79.70
2019-01-06T15:09:20.829Z,79.80
2019-01-06T15:13:34.420Z,80.70
2019-01-06T15:17:59.732Z,80.90
2019-01-06T15:22:13.269Z,81.10
2019-01-06T15:26:26.803Z,81.40
2019-01-06T15:32:44.080Z,81.80
2019-01-06T15:36:58.520Z,82.30
2019-01-06T15:41:44.211Z,83.80
2019-01-06T15:46:56.476Z,84.40
2019-01-06T15:51:10.155Z,85.00
2019-01-06T15:55:23.717Z,85.70
2019-01-06T15:59:40.081Z,86.20
2019-01-06T16:04:55.042Z,86.40
2019-01-06T16:09:08.680Z,86.90
2019-01-06T16:13:40.334Z,87.60
2019-01-06T16:17:54.204Z,88.00
2019-01-06T16:24:12.268Z,88.10
2019-01-06T16:28:28.655Z,88.50
2019-01-06T16:32:42.232Z,89.70
2019-01-06T16:37:58.125Z,90.00
2019-01-06T16:42:12.413Z,90.10
2019-01-06T16:47:28.500Z,90.30
2019-01-06T16:51:41.993Z,90.20
2019-01-06T16:55:55.695Z,90.40
2019-01-06T17:02:14.872Z,90.30
2019-01-06T17:06:28.359Z,90.20
2019-01-06T17:10:42.080Z,90.50
2019-01-06T17:15:02.287Z,90.40
2019-01-06T17:19:16.750Z,90.30
2019-01-06T17:23:33.264Z,90.30
2019-01-06T17:29:52.501Z,90.30
2019-01-06T17:34:06.289Z,90.30
2019-01-06T17:38:20.084Z,90.60
2019-01-06T17:42:47.582Z,90.70
2019-01-06T17:47:00.967Z,90.80
2019-01-06T17:51:14.386Z,90.90
2019-01-06T17:55:27.791Z,90.90
2019-01-06T18:00:42.016Z,91.00
2019-01-06T18:04:57.521Z,91.00
2019-01-06T18:09:20.633Z,91.20
2019-01-06T18:13:34.968Z,91.20
2019-01-06T18:18:50.354Z,91.20
2019-01-06T18:23:04.071Z,91.20
2019-01-06T18:27:20.751Z,91.40
2019-01-06T18:31:33.228Z,91.40
2019-01-06T18:36:55.532Z,91.30
2019-01-06T18:41:09.432Z,91.20
2019-01-06T18:45:27.924Z,91.40
2019-01-06T18:49:41.451Z,91.30
2019-01-06T18:53:54.844Z,91.30
2019-01-06T18:58:11.363Z,91.30
2019-01-06T19:02:56.036Z,91.30
2019-01-06T19:07:09.615Z,91.30
2019-01-06T19:11:23.065Z,91.30
2019-01-06T19:15:41.475Z,91.40
2019-01-06T19:19:55.075Z,91.40
2019-01-06T19:24:08.995Z,91.30
2019-01-06T19:28:28.755Z,91.40
2019-01-06T19:32:42.405Z,91.40
2019-01-06T19:36:56.829Z,91.40
2019-01-06T19:41:10.247Z,91.40
2019-01-06T19:45:23.752Z,91.40
2019-01-06T19:50:34.971Z,91.40
2019-01-06T19:54:52.457Z,91.50
2019-01-06T19:59:06.151Z,91.70
2019-01-06T20:03:24.533Z,91.60
2019-01-06T20:07:38.324Z,91.60
2019-01-06T20:13:54.384Z,91.70
2019-01-06T20:18:19.856Z,91.80
2019-01-06T20:22:35.155Z,92.00
2019-01-06T20:27:03.797Z,92.00
2019-01-06T20:32:17.073Z,92.00
2019-01-06T20:36:48.825Z,92.10
2019-01-06T20:41:02.196Z,92.20
2019-01-06T20:47:17.729Z,92.30
2019-01-06T20:51:31.165Z,92.20
2019-01-06T20:55:44.792Z,92.50
2019-01-06T21:00:18.423Z,92.50
2019-01-06T21:04:35.736Z,92.50
2019-01-06T21:08:54.040Z,92.50
2019-01-06T21:13:14.365Z,92.50
2019-01-06T21:19:30.912Z,92.50
2019-01-06T21:24:01.493Z,92.50
2019-01-06T21:28:13.920Z,92.80
2019-01-06T21:34:30.851Z,92.80
2019-01-06T21:38:44.366Z,92.80
2019-01-06T21:42:57.783Z,93.20
2019-01-06T21:47:11.433Z,93.20
2019-01-06T21:51:27.011Z,93.10
2019-01-06T21:55:40.775Z,93.10
2019-01-06T21:59:58.215Z,93.20
2019-01-06T22:04:16.779Z,93.20
2019-01-06T22:08:30.242Z,93.10
2019-01-06T22:12:43.831Z,93.10
2019-01-06T22:17:02.117Z,93.20
2019-01-06T22:21:29.624Z,93.30
2019-01-06T22:27:48.063Z,93.30
2019-01-06T22:32:01.576Z,93.30
2019-01-06T22:36:29.240Z,93.70
2019-01-06T22:40:42.511Z,93.40
2019-01-06T22:44:56.942Z,93.40
2019-01-06T22:50:10.274Z,93.30
2019-01-06T22:54:23.898Z,93.30
2019-01-06T23:00:39.942Z,93.40
2019-01-06T23:04:57.354Z,93.50
2019-01-06T23:09:12.818Z,93.80
2019-01-06T23:13:25.210Z,93.70
2019-01-06T23:18:36.566Z,93.50
2019-01-06T23:22:50.274Z,93.60
2019-01-06T23:27:08.813Z,93.60
2019-01-06T23:31:26.107Z,93.60
2019-01-06T23:35:41.542Z,93.50
2019-01-06T23:40:55.756Z,93.50
2019-01-06T23:45:09.450Z,93.50
2019-01-06T23:49:23.112Z,93.60
2019-01-06T23:53:41.578Z,93.50
2019-01-06T23:57:55.138Z,93.50
